sensor_id;sensor_type;location;lat;lon;timestamp;pressure;altitude;pressure_sealevel;temperature;humidity
6389;BME280;3227;42.654;23.360;2023-04-01T00:01:26;93317.63;;;11.16;62.26
6389;BME280;3227;42.654;23.360;2023-04-01T00:03:52;93542.88;;;12.20;63.12
6389;BME280;3227;42.654;23.360;2023-04-01T00:06:21;93566.41;;;12.39;62.72
6389;BME280;3227;42.654;23.360;2023-04-01T00:08:48;93568.81;;;12.47;62.07
6389;BME280;3227;42.654;23.360;2023-04-01T00:11:15;93573.94;;;12.48;62.07
6389;BME280;3227;42.654;23.360;2023-04-01T00:13:42;93566.09;;;12.53;61.77
6389;BME280;3227;42.654;23.360;2023-04-01T00:16:09;93571.31;;;12.50;62.71
6389;BME280;3227;42.654;23.360;2023-04-01T00:18:36;93522.47;;;12.14;63.10
6389;BME280;3227;42.654;23.360;2023-04-01T00:21:03;93566.31;;;12.44;62.92
6389;BME280;3227;42.654;23.360;2023-04-01T00:23:32;93569.44;;;12.58;62.01
6389;BME280;3227;42.654;23.360;2023-04-01T00:25:59;93574.41;;;12.64;61.79
6389;BME280;3227;42.654;23.360;2023-04-01T00:28:26;93565.59;;;12.76;60.96
6389;BME280;3227;42.654;23.360;2023-04-01T00:30:53;93544.69;;;12.52;61.56
6389;BME280;3227;42.654;23.360;2023-04-01T00:33:20;93581.09;;;12.71;61.38
6389;BME280;3227;42.654;23.360;2023-04-01T00:35:47;93574.84;;;12.83;61.93
6389;BME280;3227;42.654;23.360;2023-04-01T00:38:14;93565.31;;;12.86;61.04
6389;BME280;3227;42.654;23.360;2023-04-01T00:40:45;93562.06;;;12.78;61.34
6389;BME280;3227;42.654;23.360;2023-04-01T00:43:13;93554.41;;;12.77;62.36
6389;BME280;3227;42.654;23.360;2023-04-01T00:45:43;93558.56;;;12.82;61.81
6389;BME280;3227;42.654;23.360;2023-04-01T00:48:13;93557.53;;;12.89;61.11
6389;BME280;3227;42.654;23.360;2023-04-01T00:50:44;93529.25;;;12.89;62.02
6389;BME280;3227;42.654;23.360;2023-04-01T00:53:12;93528.25;;;12.95;62.93
6389;BME280;3227;42.654;23.360;2023-04-01T00:55:45;93531.50;;;13.02;62.91
6389;BME280;3227;42.654;23.360;2023-04-01T00:58:16;93525.59;;;12.98;62.38
6389;BME280;3227;42.654;23.360;2023-04-01T01:00:46;93530.78;;;12.96;63.14
6389;BME280;3227;42.654;23.360;2023-04-01T01:03:14;93529.31;;;12.86;62.80
6389;BME280;3227;42.654;23.360;2023-04-01T01:06:00;93524.34;;;12.80;62.20
6389;BME280;3227;42.654;23.360;2023-04-01T01:08:43;93511.53;;;12.77;62.35
6389;BME280;3227;42.654;23.360;2023-04-01T01:11:19;93511.53;;;12.77;62.40
6389;BME280;3227;42.654;23.360;2023-04-01T01:13:54;93504.13;;;12.67;62.98
6389;BME280;3227;42.654;23.360;2023-04-01T01:16:27;93498.19;;;12.63;62.34
6389;BME280;3227;42.654;23.360;2023-04-01T01:18:59;93488.84;;;12.61;62.06
6389;BME280;3227;42.654;23.360;2023-04-01T01:21:47;93483.66;;;12.62;62.24
6389;BME280;3227;42.654;23.360;2023-04-01T01:27:13;93481.63;;;12.76;60.98
6389;BME280;3227;42.654;23.360;2023-04-01T01:32:55;93483.56;;;12.67;61.28
6389;BME280;3227;42.654;23.360;2023-04-01T01:35:30;93461.41;;;12.61;61.33
6389;BME280;3227;42.654;23.360;2023-04-01T01:38:00;93465.47;;;12.70;61.00
6389;BME280;3227;42.654;23.360;2023-04-01T01:40:31;93462.81;;;12.74;60.44
6389;BME280;3227;42.654;23.360;2023-04-01T01:43:04;93431.38;;;12.63;59.29
6389;BME280;3227;42.654;23.360;2023-04-01T01:45:33;93487.28;;;12.89;59.65
6389;BME280;3227;42.654;23.360;2023-04-01T01:48:02;93476.22;;;12.85;60.46
6389;BME280;3227;42.654;23.360;2023-04-01T01:50:32;93460.28;;;12.73;60.75
6389;BME280;3227;42.654;23.360;2023-04-01T01:53:04;93473.78;;;12.81;59.63
6389;BME280;3227;42.654;23.360;2023-04-01T01:55:32;93459.13;;;12.84;59.47
6389;BME280;3227;42.654;23.360;2023-04-01T01:58:04;93462.41;;;12.89;57.63
6389;BME280;3227;42.654;23.360;2023-04-01T02:00:33;93457.06;;;12.97;57.74
6389;BME280;3227;42.654;23.360;2023-04-01T02:03:00;93450.97;;;13.01;57.19
6389;BME280;3227;42.654;23.360;2023-04-01T02:05:28;93452.38;;;13.11;57.11
6389;BME280;3227;42.654;23.360;2023-04-01T02:08:02;93436.91;;;13.14;55.63
6389;BME280;3227;42.654;23.360;2023-04-01T02:10:35;93387.00;;;12.89;56.09
6389;BME280;3227;42.654;23.360;2023-04-01T02:13:06;93431.72;;;13.17;55.50
6389;BME280;3227;42.654;23.360;2023-04-01T02:15:40;93443.25;;;13.01;56.63
6389;BME280;3227;42.654;23.360;2023-04-01T02:18:08;93443.19;;;13.03;56.44
6389;BME280;3227;42.654;23.360;2023-04-01T02:20:37;93439.06;;;12.97;55.93
6389;BME280;3227;42.654;23.360;2023-04-01T02:23:07;93430.69;;;12.90;55.79
6389;BME280;3227;42.654;23.360;2023-04-01T02:25:35;93422.78;;;12.96;55.37
6389;BME280;3227;42.654;23.360;2023-04-01T02:28:05;93427.72;;;13.04;55.52
6389;BME280;3227;42.654;23.360;2023-04-01T02:30:34;93425.06;;;13.09;56.01
6389;BME280;3227;42.654;23.360;2023-04-01T02:33:03;93424.06;;;13.13;55.66
6389;BME280;3227;42.654;23.360;2023-04-01T02:35:33;93437.66;;;13.18;55.21
6389;BME280;3227;42.654;23.360;2023-04-01T02:38:01;93419.13;;;13.05;56.76
6389;BME280;3227;42.654;23.360;2023-04-01T02:40:41;93437.78;;;13.15;56.86
6389;BME280;3227;42.654;23.360;2023-04-01T02:43:08;93440.38;;;13.13;56.09
6389;BME280;3227;42.654;23.360;2023-04-01T02:45:34;93442.91;;;13.15;56.65
6389;BME280;3227;42.654;23.360;2023-04-01T02:48:01;93436.06;;;13.14;56.91
6389;BME280;3227;42.654;23.360;2023-04-01T02:50:28;93441.16;;;13.17;56.74
6389;BME280;3227;42.654;23.360;2023-04-01T02:52:55;93449.59;;;13.20;56.02
6389;BME280;3227;42.654;23.360;2023-04-01T02:55:21;93445.31;;;13.21;56.19
6389;BME280;3227;42.654;23.360;2023-04-01T02:57:50;93445.13;;;13.27;56.34
6389;BME280;3227;42.654;23.360;2023-04-01T03:00:17;93453.09;;;13.18;57.32
6389;BME280;3227;42.654;23.360;2023-04-01T03:02:44;93462.91;;;13.02;57.96
6389;BME280;3227;42.654;23.360;2023-04-01T03:05:10;93466.00;;;12.84;59.21
6389;BME280;3227;42.654;23.360;2023-04-01T03:07:38;93458.59;;;12.72;59.15
6389;BME280;3227;42.654;23.360;2023-04-01T03:10:06;93468.94;;;12.69;59.23
6389;BME280;3227;42.654;23.360;2023-04-01T03:12:32;93468.78;;;12.75;59.84
6389;BME280;3227;42.654;23.360;2023-04-01T03:15:01;93469.53;;;12.78;60.05
6389;BME280;3227;42.654;23.360;2023-04-01T03:17:27;93469.34;;;12.86;59.63
6389;BME280;3227;42.654;23.360;2023-04-01T03:19:54;93470.84;;;12.94;58.98
6389;BME280;3227;42.654;23.360;2023-04-01T03:22:21;93480.06;;;13.02;58.69
6389;BME280;3227;42.654;23.360;2023-04-01T03:24:48;93464.53;;;13.06;58.39
6389;BME280;3227;42.654;23.360;2023-04-01T03:27:15;93484.94;;;13.12;58.12
6389;BME280;3227;42.654;23.360;2023-04-01T03:29:42;93482.53;;;13.06;58.75
6389;BME280;3227;42.654;23.360;2023-04-01T03:32:10;93482.41;;;13.11;59.15
6389;BME280;3227;42.654;23.360;2023-04-01T03:34:36;93477.66;;;12.95;59.08
6389;BME280;3227;42.654;23.360;2023-04-01T03:37:03;93485.63;;;12.86;60.22
6389;BME280;3227;42.654;23.360;2023-04-01T03:39:31;93478.66;;;12.91;61.00
6389;BME280;3227;42.654;23.360;2023-04-01T03:41:58;93472.66;;;12.91;60.73
6389;BME280;3227;42.654;23.360;2023-04-01T03:44:25;93460.88;;;12.82;61.29
6389;BME280;3227;42.654;23.360;2023-04-01T03:46:52;93451.00;;;12.67;63.18
6389;BME280;3227;42.654;23.360;2023-04-01T03:49:20;93442.69;;;12.57;62.79
6389;BME280;3227;42.654;23.360;2023-04-01T03:51:47;93445.94;;;12.64;64.01
6389;BME280;3227;42.654;23.360;2023-04-01T03:54:14;93382.34;;;12.38;63.25
6389;BME280;3227;42.654;23.360;2023-04-01T03:56:40;93418.91;;;12.82;62.76
6389;BME280;3227;42.654;23.360;2023-04-01T03:59:07;93397.34;;;12.87;61.92
6389;BME280;3227;42.654;23.360;2023-04-01T04:01:35;93395.00;;;12.78;62.06
6389;BME280;3227;42.654;23.360;2023-04-01T04:04:02;93383.00;;;12.79;61.54
6389;BME280;3227;42.654;23.360;2023-04-01T04:06:30;93370.84;;;12.53;61.80
6389;BME280;3227;42.654;23.360;2023-04-01T04:08:57;93382.91;;;12.51;62.41
6389;BME280;3227;42.654;23.360;2023-04-01T04:11:23;93379.59;;;12.46;62.78
6389;BME280;3227;42.654;23.360;2023-04-01T04:13:51;93363.47;;;12.41;63.50
6389;BME280;3227;42.654;23.360;2023-04-01T04:16:19;93358.41;;;12.36;62.46
6389;BME280;3227;42.654;23.360;2023-04-01T04:18:46;93354.97;;;12.37;61.76
6389;BME280;3227;42.654;23.360;2023-04-01T04:21:14;93349.22;;;12.28;60.95
6389;BME280;3227;42.654;23.360;2023-04-01T04:23:42;93342.56;;;12.20;61.61
6389;BME280;3227;42.654;23.360;2023-04-01T04:26:11;93351.75;;;12.29;61.33
6389;BME280;3227;42.654;23.360;2023-04-01T04:28:38;93355.66;;;12.44;60.39
6389;BME280;3227;42.654;23.360;2023-04-01T04:31:06;93343.44;;;12.52;60.42
6389;BME280;3227;42.654;23.360;2023-04-01T04:33:33;93339.75;;;12.62;58.54
6389;BME280;3227;42.654;23.360;2023-04-01T04:36:01;93332.84;;;12.64;59.56
6389;BME280;3227;42.654;23.360;2023-04-01T04:38:28;93326.59;;;12.74;59.30
6389;BME280;3227;42.654;23.360;2023-04-01T04:40:56;93313.78;;;12.73;58.56
6389;BME280;3227;42.654;23.360;2023-04-01T04:43:23;93312.66;;;12.83;57.48
6389;BME280;3227;42.654;23.360;2023-04-01T04:45:50;93311.97;;;12.76;57.68
6389;BME280;3227;42.654;23.360;2023-04-01T04:48:17;93299.16;;;12.75;58.23
6389;BME280;3227;42.654;23.360;2023-04-01T04:50:46;93300.72;;;12.80;58.15
6389;BME280;3227;42.654;23.360;2023-04-01T04:53:14;93295.44;;;12.85;57.78
6389;BME280;3227;42.654;23.360;2023-04-01T04:55:43;93294.88;;;12.75;58.19
6389;BME280;3227;42.654;23.360;2023-04-01T04:58:17;93281.47;;;12.64;58.97
6389;BME280;3227;42.654;23.360;2023-04-01T05:00:44;93221.47;;;12.03;58.79
6389;BME280;3227;42.654;23.360;2023-04-01T05:03:12;93289.16;;;12.33;59.25
6389;BME280;3227;42.654;23.360;2023-04-01T05:05:39;93293.50;;;12.31;60.20
6389;BME280;3227;42.654;23.360;2023-04-01T05:08:11;93289.03;;;12.38;61.08
6389;BME280;3227;42.654;23.360;2023-04-01T05:10:37;93289.66;;;12.46;61.14
6389;BME280;3227;42.654;23.360;2023-04-01T05:13:04;93286.22;;;12.47;61.44
6389;BME280;3227;42.654;23.360;2023-04-01T05:15:32;93289.50;;;12.52;62.01
6389;BME280;3227;42.654;23.360;2023-04-01T05:17:59;93276.31;;;12.64;61.01
6389;BME280;3227;42.654;23.360;2023-04-01T05:20:26;93277.94;;;12.68;60.68
6389;BME280;3227;42.654;23.360;2023-04-01T05:22:55;93267.75;;;12.65;60.06
6389;BME280;3227;42.654;23.360;2023-04-01T05:25:22;93274.63;;;12.63;60.30
6389;BME280;3227;42.654;23.360;2023-04-01T05:27:49;93261.59;;;12.69;60.21
6389;BME280;3227;42.654;23.360;2023-04-01T05:30:16;93250.19;;;12.79;60.33
6389;BME280;3227;42.654;23.360;2023-04-01T05:32:44;93252.88;;;12.76;59.64
6389;BME280;3227;42.654;23.360;2023-04-01T05:35:11;93270.63;;;12.53;60.65
6389;BME280;3227;42.654;23.360;2023-04-01T05:37:38;93266.13;;;12.61;60.25
6389;BME280;3227;42.654;23.360;2023-04-01T05:40:06;93250.28;;;12.76;59.71
6389;BME280;3227;42.654;23.360;2023-04-01T05:42:33;93251.50;;;12.63;59.63
6389;BME280;3227;42.654;23.360;2023-04-01T05:45:01;93265.59;;;12.79;59.49
6389;BME280;3227;42.654;23.360;2023-04-01T05:47:27;93265.34;;;12.88;59.47
6389;BME280;3227;42.654;23.360;2023-04-01T05:49:55;93261.00;;;12.90;58.06
6389;BME280;3227;42.654;23.360;2023-04-01T05:52:22;93255.50;;;13.03;57.96
6389;BME280;3227;42.654;23.360;2023-04-01T05:54:49;93251.94;;;13.36;57.67
6389;BME280;3227;42.654;23.360;2023-04-01T05:57:16;93237.09;;;13.70;55.81
6389;BME280;3227;42.654;23.360;2023-04-01T05:59:43;93236.88;;;14.28;54.94
6389;BME280;3227;42.654;23.360;2023-04-01T06:02:11;93060.81;;;13.82;53.06
6389;BME280;3227;42.654;23.360;2023-04-01T06:04:38;93219.25;;;15.32;51.50
6389;BME280;3227;42.654;23.360;2023-04-01T06:07:11;93238.16;;;15.98;50.53
6389;BME280;3227;42.654;23.360;2023-04-01T06:09:38;93242.31;;;16.22;48.46
6389;BME280;3227;42.654;23.360;2023-04-01T06:12:40;93243.72;;;15.67;49.04
6389;BME280;3227;42.654;23.360;2023-04-01T06:15:20;93242.38;;;15.35;50.26
6389;BME280;3227;42.654;23.360;2023-04-01T06:18:00;93244.59;;;15.22;49.99
6389;BME280;3227;42.654;23.360;2023-04-01T06:20:37;93233.34;;;15.23;49.95
6389;BME280;3227;42.654;23.360;2023-04-01T06:23:24;93236.91;;;15.43;50.22
6389;BME280;3227;42.654;23.360;2023-04-01T06:26:05;93212.59;;;15.27;49.24
6389;BME280;3227;42.654;23.360;2023-04-01T06:31:57;93224.78;;;15.01;49.44
6389;BME280;3227;42.654;23.360;2023-04-01T06:34:38;93230.31;;;14.91;50.66
6389;BME280;3227;42.654;23.360;2023-04-01T06:37:20;93222.41;;;14.73;51.09
6389;BME280;3227;42.654;23.360;2023-04-01T06:43:05;93217.94;;;14.54;52.44
6389;BME280;3227;42.654;23.360;2023-04-01T06:45:43;93198.66;;;13.66;56.02
6389;BME280;3227;42.654;23.360;2023-04-01T06:48:23;93200.47;;;13.36;57.88
6389;BME280;3227;42.654;23.360;2023-04-01T06:51:02;93211.94;;;13.26;58.61
6389;BME280;3227;42.654;23.360;2023-04-01T06:53:43;93209.94;;;13.08;59.84
6389;BME280;3227;42.654;23.360;2023-04-01T06:56:17;93196.63;;;12.93;62.21
6389;BME280;3227;42.654;23.360;2023-04-01T06:58:52;93173.19;;;12.76;62.52
6389;BME280;3227;42.654;23.360;2023-04-01T07:01:23;93188.59;;;13.04;62.64
6389;BME280;3227;42.654;23.360;2023-04-01T07:03:56;93195.19;;;13.13;62.89
6389;BME280;3227;42.654;23.360;2023-04-01T07:06:28;93183.66;;;13.26;62.41
6389;BME280;3227;42.654;23.360;2023-04-01T07:08:59;93179.50;;;13.48;62.19
6389;BME280;3227;42.654;23.360;2023-04-01T07:11:31;93180.50;;;13.44;63.01
6389;BME280;3227;42.654;23.360;2023-04-01T07:14:01;93184.03;;;13.42;63.01
6389;BME280;3227;42.654;23.360;2023-04-01T07:16:31;93187.91;;;13.53;62.42
6389;BME280;3227;42.654;23.360;2023-04-01T07:19:03;93179.38;;;13.78;61.43
6389;BME280;3227;42.654;23.360;2023-04-01T07:21:35;93171.91;;;13.95;60.96
6389;BME280;3227;42.654;23.360;2023-04-01T07:24:06;93180.56;;;14.17;60.95
6389;BME280;3227;42.654;23.360;2023-04-01T07:26:35;93174.91;;;14.32;60.60
6389;BME280;3227;42.654;23.360;2023-04-01T07:29:09;93178.22;;;14.34;59.37
6389;BME280;3227;42.654;23.360;2023-04-01T07:31:49;93182.16;;;14.21;60.01
6389;BME280;3227;42.654;23.360;2023-04-01T07:34:25;93177.53;;;14.31;59.08
6389;BME280;3227;42.654;23.360;2023-04-01T07:37:03;93178.38;;;14.31;59.31
6389;BME280;3227;42.654;23.360;2023-04-01T07:42:57;93169.72;;;14.57;59.90
6389;BME280;3227;42.654;23.360;2023-04-01T07:45:33;93176.44;;;14.83;58.87
6389;BME280;3227;42.654;23.360;2023-04-01T07:48:14;93172.63;;;14.93;58.32
6389;BME280;3227;42.654;23.360;2023-04-01T07:50:52;93169.91;;;14.98;58.02
6389;BME280;3227;42.654;23.360;2023-04-01T07:53:26;93162.47;;;14.90;58.02
6389;BME280;3227;42.654;23.360;2023-04-01T07:56:04;93172.03;;;14.87;58.93
6389;BME280;3227;42.654;23.360;2023-04-01T07:58:40;93160.53;;;14.95;58.89
6389;BME280;3227;42.654;23.360;2023-04-01T08:01:18;93171.19;;;15.08;58.48
6389;BME280;3227;42.654;23.360;2023-04-01T08:04:04;93170.09;;;15.15;58.43
6389;BME280;3227;42.654;23.360;2023-04-01T08:06:40;93168.22;;;15.18;58.55
6389;BME280;3227;42.654;23.360;2023-04-01T08:09:15;93157.53;;;15.28;57.73
6389;BME280;3227;42.654;23.360;2023-04-01T08:11:53;93160.63;;;15.36;57.31
6389;BME280;3227;42.654;23.360;2023-04-01T08:14:32;93143.31;;;15.17;57.30
6389;BME280;3227;42.654;23.360;2023-04-01T08:17:12;93149.31;;;15.18;56.67
6389;BME280;3227;42.654;23.360;2023-04-01T08:19:55;93155.00;;;15.26;56.63
6389;BME280;3227;42.654;23.360;2023-04-01T08:22:27;93115.44;;;15.26;56.44
6389;BME280;3227;42.654;23.360;2023-04-01T08:24:57;93129.28;;;15.45;55.92
6389;BME280;3227;42.654;23.360;2023-04-01T08:27:31;93096.19;;;15.34;55.50
6389;BME280;3227;42.654;23.360;2023-04-01T08:30:04;93111.25;;;15.65;55.31
6389;BME280;3227;42.654;23.360;2023-04-01T08:32:35;93104.47;;;15.83;54.76
6389;BME280;3227;42.654;23.360;2023-04-01T08:35:08;93096.16;;;15.96;55.09
6389;BME280;3227;42.654;23.360;2023-04-01T08:37:39;93088.63;;;16.11;55.01
6389;BME280;3227;42.654;23.360;2023-04-01T08:40:24;93088.56;;;16.12;54.67
6389;BME280;3227;42.654;23.360;2023-04-01T08:43:03;93068.66;;;16.14;55.66
6389;BME280;3227;42.654;23.360;2023-04-01T08:45:56;93071.53;;;16.27;54.58
6389;BME280;3227;42.654;23.360;2023-04-01T08:48:54;93072.84;;;16.17;53.94
6389;BME280;3227;42.654;23.360;2023-04-01T08:51:49;93063.69;;;16.10;53.75
6389;BME280;3227;42.654;23.360;2023-04-01T08:54:48;93058.66;;;16.07;54.03
6389;BME280;3227;42.654;23.360;2023-04-01T08:57:30;93034.69;;;15.84;53.67
6389;BME280;3227;42.654;23.360;2023-04-01T09:00:14;93020.97;;;15.64;53.12
6389;BME280;3227;42.654;23.360;2023-04-01T09:03:13;93075.72;;;15.90;54.32
6389;BME280;3227;42.654;23.360;2023-04-01T09:06:01;93061.72;;;16.15;54.78
6389;BME280;3227;42.654;23.360;2023-04-01T09:08:47;93053.56;;;16.24;52.07
6389;BME280;3227;42.654;23.360;2023-04-01T09:11:30;93058.03;;;16.02;52.98
6389;BME280;3227;42.654;23.360;2023-04-01T09:14:19;93062.69;;;15.93;53.50
6389;BME280;3227;42.654;23.360;2023-04-01T09:20:19;93053.16;;;15.95;51.84
6389;BME280;3227;42.654;23.360;2023-04-01T09:23:08;93064.38;;;15.94;51.87
6389;BME280;3227;42.654;23.360;2023-04-01T09:25:48;93059.00;;;15.99;52.10
6389;BME280;3227;42.654;23.360;2023-04-01T09:28:27;93042.41;;;16.05;48.44
6389;BME280;3227;42.654;23.360;2023-04-01T09:31:08;93010.41;;;15.88;49.11
6389;BME280;3227;42.654;23.360;2023-04-01T09:34:23;93033.75;;;16.06;48.54
6389;BME280;3227;42.654;23.360;2023-04-01T09:37:01;93022.97;;;16.15;48.20
6389;BME280;3227;42.654;23.360;2023-04-01T09:39:41;93030.59;;;16.18;48.62
6389;BME280;3227;42.654;23.360;2023-04-01T09:42:29;93025.44;;;16.18;48.66
6389;BME280;3227;42.654;23.360;2023-04-01T09:45:08;93020.69;;;16.09;48.29
6389;BME280;3227;42.654;23.360;2023-04-01T09:47:45;93011.25;;;16.08;47.79
6389;BME280;3227;42.654;23.360;2023-04-01T09:50:35;93015.22;;;16.15;47.42
6389;BME280;3227;42.654;23.360;2023-04-01T09:53:24;93011.75;;;16.16;47.15
6389;BME280;3227;42.654;23.360;2023-04-01T09:56:38;92999.78;;;16.32;47.41
6389;BME280;3227;42.654;23.360;2023-04-01T09:59:24;92955.13;;;16.11;47.14
6389;BME280;3227;42.654;23.360;2023-04-01T10:08:31;92984.56;;;16.45;46.75
6389;BME280;3227;42.654;23.360;2023-04-01T10:11:20;92993.84;;;16.49;47.62
6389;BME280;3227;42.654;23.360;2023-04-01T10:14:22;92982.09;;;16.60;47.78
6389;BME280;3227;42.654;23.360;2023-04-01T10:17:17;92986.84;;;16.69;47.72
6389;BME280;3227;42.654;23.360;2023-04-01T10:26:14;92961.47;;;16.59;48.49
6389;BME280;3227;42.654;23.360;2023-04-01T10:35:26;92960.66;;;16.40;49.62
6389;BME280;3227;42.654;23.360;2023-04-01T10:38:26;92960.84;;;16.54;49.59
6389;BME280;3227;42.654;23.360;2023-04-01T10:47:20;92933.78;;;16.25;50.80
6389;BME280;3227;42.654;23.360;2023-04-01T10:50:18;92934.03;;;16.20;51.28
6389;BME280;3227;42.654;23.360;2023-04-01T10:56:32;92932.13;;;16.60;50.89
6389;BME280;3227;42.654;23.360;2023-04-01T10:59:32;92912.28;;;16.60;49.47
6389;BME280;3227;42.654;23.360;2023-04-01T11:08:56;92920.94;;;16.59;49.69
6389;BME280;3227;42.654;23.360;2023-04-01T11:11:54;92912.06;;;16.65;48.04
6389;BME280;3227;42.654;23.360;2023-04-01T11:21:32;92895.31;;;16.72;46.15
6389;BME280;3227;42.654;23.360;2023-04-01T11:24:40;92900.44;;;16.73;45.90
6389;BME280;3227;42.654;23.360;2023-04-01T11:27:22;92913.09;;;16.80;44.99
6389;BME280;3227;42.654;23.360;2023-04-01T11:30:09;92915.44;;;16.84;42.68
6389;BME280;3227;42.654;23.360;2023-04-01T11:32:46;92922.03;;;16.90;42.68
6389;BME280;3227;42.654;23.360;2023-04-01T11:35:55;92952.47;;;16.85;43.28
6389;BME280;3227;42.654;23.360;2023-04-01T11:38:36;92964.94;;;16.77;44.40
6389;BME280;3227;42.654;23.360;2023-04-01T11:41:18;92976.97;;;16.78;45.12
6389;BME280;3227;42.654;23.360;2023-04-01T11:44:08;92990.13;;;16.73;48.59
6389;BME280;3227;42.654;23.360;2023-04-01T11:46:46;92996.28;;;16.33;52.57
6389;BME280;3227;42.654;23.360;2023-04-01T11:49:26;93061.41;;;16.04;56.14
6389;BME280;3227;42.654;23.360;2023-04-01T11:52:19;93083.81;;;15.83;57.96
6389;BME280;3227;42.654;23.360;2023-04-01T11:55:01;93130.63;;;15.55;64.71
6389;BME280;3227;42.654;23.360;2023-04-01T11:57:46;93117.22;;;14.81;73.07
6389;BME280;3227;42.654;23.360;2023-04-01T12:00:30;93166.25;;;14.33;79.05
6389;BME280;3227;42.654;23.360;2023-04-01T12:03:18;93176.75;;;14.04;81.24
6389;BME280;3227;42.654;23.360;2023-04-01T12:05:48;93176.41;;;13.90;84.45
6389;BME280;3227;42.654;23.360;2023-04-01T12:08:34;93141.06;;;13.93;85.71
6389;BME280;3227;42.654;23.360;2023-04-01T12:11:12;93123.03;;;13.93;86.38
6389;BME280;3227;42.654;23.360;2023-04-01T12:13:50;93148.53;;;14.01;88.43
6389;BME280;3227;42.654;23.360;2023-04-01T12:16:27;93140.13;;;13.96;87.46
6389;BME280;3227;42.654;23.360;2023-04-01T12:19:01;93135.59;;;14.02;88.33
6389;BME280;3227;42.654;23.360;2023-04-01T12:21:36;93154.19;;;14.10;86.51
6389;BME280;3227;42.654;23.360;2023-04-01T12:24:25;93143.56;;;14.20;85.79
6389;BME280;3227;42.654;23.360;2023-04-01T12:27:29;93136.22;;;14.09;84.49
6389;BME280;3227;42.654;23.360;2023-04-01T12:33:04;93138.88;;;14.07;84.45
6389;BME280;3227;42.654;23.360;2023-04-01T12:35:46;93128.72;;;13.78;85.35
6389;BME280;3227;42.654;23.360;2023-04-01T12:38:29;93151.03;;;13.53;87.86
6389;BME280;3227;42.654;23.360;2023-04-01T12:41:17;93140.03;;;13.23;91.23
6389;BME280;3227;42.654;23.360;2023-04-01T12:44:16;93162.88;;;13.04;94.79
6389;BME280;3227;42.654;23.360;2023-04-01T12:47:11;93152.84;;;12.69;97.74
6389;BME280;3227;42.654;23.360;2023-04-01T12:50:06;93154.03;;;12.28;100.00
6389;BME280;3227;42.654;23.360;2023-04-01T12:52:47;93152.13;;;12.05;100.00
6389;BME280;3227;42.654;23.360;2023-04-01T12:55:35;93148.69;;;12.06;100.00
6389;BME280;3227;42.654;23.360;2023-04-01T13:01:27;93141.19;;;11.98;98.66
6389;BME280;3227;42.654;23.360;2023-04-01T13:04:22;93137.13;;;11.91;100.00
6389;BME280;3227;42.654;23.360;2023-04-01T13:10:02;93113.66;;;11.72;100.00
6389;BME280;3227;42.654;23.360;2023-04-01T13:15:26;93095.44;;;11.83;100.00
6389;BME280;3227;42.654;23.360;2023-04-01T13:18:01;93022.19;;;11.70;99.49
6389;BME280;3227;42.654;23.360;2023-04-01T13:20:43;93049.47;;;12.33;99.23
6389;BME280;3227;42.654;23.360;2023-04-01T13:23:20;93051.91;;;12.91;94.79
6389;BME280;3227;42.654;23.360;2023-04-01T13:25:57;93064.19;;;13.34;86.21
6389;BME280;3227;42.654;23.360;2023-04-01T13:28:27;93062.72;;;13.52;86.53
6389;BME280;3227;42.654;23.360;2023-04-01T13:31:02;93064.59;;;13.72;84.03
6389;BME280;3227;42.654;23.360;2023-04-01T13:33:38;93023.94;;;13.82;83.44
6389;BME280;3227;42.654;23.360;2023-04-01T13:36:19;93046.97;;;14.31;78.83
6389;BME280;3227;42.654;23.360;2023-04-01T13:39:06;93043.69;;;14.26;81.41
6389;BME280;3227;42.654;23.360;2023-04-01T13:41:50;93006.13;;;13.99;82.90
6389;BME280;3227;42.654;23.360;2023-04-01T13:44:27;92972.75;;;13.96;83.26
6389;BME280;3227;42.654;23.360;2023-04-01T13:47:24;93025.25;;;14.38;79.70
6389;BME280;3227;42.654;23.360;2023-04-01T13:50:07;92968.97;;;13.83;77.72
6389;BME280;3227;42.654;23.360;2023-04-01T13:52:53;93021.16;;;14.09;77.81
6389;BME280;3227;42.654;23.360;2023-04-01T13:55:39;93006.19;;;14.19;78.60
6389;BME280;3227;42.654;23.360;2023-04-01T14:01:17;93018.72;;;14.28;77.53
6389;BME280;3227;42.654;23.360;2023-04-01T14:04:03;93013.22;;;14.37;75.47
6389;BME280;3227;42.654;23.360;2023-04-01T14:06:39;92996.59;;;14.46;77.07
6389;BME280;3227;42.654;23.360;2023-04-01T14:09:37;92993.91;;;14.71;76.01
6389;BME280;3227;42.654;23.360;2023-04-01T14:12:15;92937.97;;;14.51;73.49
6389;BME280;3227;42.654;23.360;2023-04-01T14:14:56;92993.63;;;14.57;75.09
6389;BME280;3227;42.654;23.360;2023-04-01T14:17:38;92961.28;;;14.26;78.98
6389;BME280;3227;42.654;23.360;2023-04-01T14:20:22;92899.31;;;13.42;84.31
6389;BME280;3227;42.654;23.360;2023-04-01T14:23:02;92945.13;;;13.31;87.21
6389;BME280;3227;42.654;23.360;2023-04-01T14:26:03;92974.41;;;13.27;89.01
6389;BME280;3227;42.654;23.360;2023-04-01T14:28:41;92976.19;;;13.50;88.74
6389;BME280;3227;42.654;23.360;2023-04-01T14:31:21;92969.75;;;13.38;88.80
6389;BME280;3227;42.654;23.360;2023-04-01T14:33:58;92957.22;;;13.52;87.50
6389;BME280;3227;42.654;23.360;2023-04-01T14:36:35;92963.06;;;13.57;87.59
6389;BME280;3227;42.654;23.360;2023-04-01T14:39:18;92958.53;;;13.64;87.76
6389;BME280;3227;42.654;23.360;2023-04-01T14:42:02;92954.47;;;13.80;86.61
6389;BME280;3227;42.654;23.360;2023-04-01T14:47:38;92971.00;;;14.41;85.12
6389;BME280;3227;42.654;23.360;2023-04-01T14:50:13;92961.22;;;14.50;82.72
6389;BME280;3227;42.654;23.360;2023-04-01T14:52:44;92967.53;;;14.42;83.36
6389;BME280;3227;42.654;23.360;2023-04-01T14:55:29;92955.41;;;14.66;81.43
6389;BME280;3227;42.654;23.360;2023-04-01T14:58:10;92965.53;;;14.71;80.76
6389;BME280;3227;42.654;23.360;2023-04-01T15:00:47;92951.28;;;14.82;81.18
6389;BME280;3227;42.654;23.360;2023-04-01T15:03:22;92942.31;;;14.91;79.25
6389;BME280;3227;42.654;23.360;2023-04-01T15:05:56;92968.56;;;15.01;79.85
6389;BME280;3227;42.654;23.360;2023-04-01T15:08:25;92971.72;;;15.07;78.19
6389;BME280;3227;42.654;23.360;2023-04-01T15:11:10;92907.16;;;14.70;77.99
6389;BME280;3227;42.654;23.360;2023-04-01T15:14:07;92969.84;;;14.91;78.92
6389;BME280;3227;42.654;23.360;2023-04-01T15:16:44;92981.16;;;14.46;80.87